Time,TemperatureF,DewpointF,PressureIn,WindDirection,WindDirectionDegrees,WindSpeedMPH,WindSpeedGustMPH,Humidity,HourlyPrecipIn,Conditions,Clouds,dailyrainin,SoftwareType,DateUTC
2013-10-07 00:08:00,46.6,43.8,29.78,WNW,292,1.7,-999.0,90,-99.99,,,0.00,Acu-Link.com,2013-10-07 04:08:00,
2013-10-07 00:23:00,45.5,43.3,29.78,SSE,157,0.0,-999.0,92,-99.99,,,0.00,Acu-Link.com,2013-10-07 04:23:00,
2013-10-07 00:38:00,45.9,43.7,29.77,WNW,292,1.1,-999.0,92,-99.99,,,0.00,Acu-Link.com,2013-10-07 04:38:00,
2013-10-07 00:54:00,46.0,43.5,29.78,SSW,202,1.7,-999.0,91,-99.99,,,0.00,Acu-Link.com,2013-10-07 04:54:00,
2013-10-07 01:09:00,45.7,43.8,29.78,West,270,2.2,-999.0,93,-99.99,,,0.00,Acu-Link.com,2013-10-07 05:09:00,
2013-10-07 01:25:00,45.7,43.8,29.77,West,270,2.2,-999.0,93,-99.99,,,0.00,Acu-Link.com,2013-10-07 05:25:00,
2013-10-07 01:42:00,45.9,44.0,29.77,West,270,2.2,-999.0,93,-99.99,,,0.00,Acu-Link.com,2013-10-07 05:42:00,
2013-10-07 01:57:00,45.9,44.0,29.78,WSW,247,2.7,-999.0,93,-99.99,,,0.00,Acu-Link.com,2013-10-07 05:57:00,
2013-10-07 02:12:00,46.2,44.3,29.77,WSW,247,2.2,-999.0,93,-99.99,,,0.00,Acu-Link.com,2013-10-07 06:12:00,
2013-10-07 02:28:00,46.4,44.5,29.78,WSW,247,2.2,-999.0,93,-99.99,,,0.00,Acu-Link.com,2013-10-07 06:28:00,
2013-10-07 02:43:00,46.4,44.5,29.77,WSW,247,1.7,-999.0,93,-99.99,,,0.00,Acu-Link.com,2013-10-07 06:43:00,
2013-10-07 02:59:00,46.4,44.5,29.77,West,270,1.7,-999.0,93,-99.99,,,0.00,Acu-Link.com,2013-10-07 06:59:00,
2013-10-07 03:14:00,46.6,44.7,29.77,West,270,2.2,-999.0,93,-99.99,,,0.00,Acu-Link.com,2013-10-07 07:14:00,
2013-10-07 03:29:00,46.9,44.4,29.77,SSW,202,3.2,-999.0,91,-99.99,,,0.00,Acu-Link.com,2013-10-07 07:29:00,
2013-10-07 03:45:00,46.9,44.1,29.77,WSW,247,2.7,-999.0,90,-99.99,,,0.00,Acu-Link.com,2013-10-07 07:45:00,
2013-10-07 04:00:00,48.0,44.9,29.77,WSW,247,2.7,-999.0,89,-99.99,,,0.00,Acu-Link.com,2013-10-07 08:00:00,
2013-10-07 04:16:00,48.0,44.9,29.77,West,270,2.2,-999.0,89,-99.99,,,0.00,Acu-Link.com,2013-10-07 08:16:00,
2013-10-07 04:31:00,48.0,45.2,29.76,WSW,247,0.0,-999.0,90,-99.99,,,0.00,Acu-Link.com,2013-10-07 08:31:00,
2013-10-07 04:48:00,48.2,45.4,29.76,SW,225,1.7,-999.0,90,-99.99,,,0.00,Acu-Link.com,2013-10-07 08:48:00,
2013-10-07 05:03:00,48.2,45.4,29.77,SW,225,1.7,-999.0,90,-99.99,,,0.00,Acu-Link.com,2013-10-07 09:03:00,
2013-10-07 05:18:00,48.4,45.6,29.76,WNW,292,1.7,-999.0,90,-99.99,,,0.00,Acu-Link.com,2013-10-07 09:18:00,
2013-10-07 05:34:00,48.6,45.8,29.76,SSW,202,1.7,-999.0,90,-99.99,,,0.00,Acu-Link.com,2013-10-07 09:34:00,
2013-10-07 05:49:00,48.7,45.6,29.77,SSW,202,2.2,-999.0,89,-99.99,,,0.00,Acu-Link.com,2013-10-07 09:49:00,
2013-10-07 06:04:00,48.9,45.8,29.78,South,180,3.2,-999.0,89,-99.99,,,0.00,Acu-Link.com,2013-10-07 10:04:00,
2013-10-07 06:19:00,48.9,45.8,29.78,West,270,2.7,-999.0,89,-99.99,,,0.00,Acu-Link.com,2013-10-07 10:19:00,
2013-10-07 06:35:00,48.7,46.8,29.79,SW,225,3.7,-999.0,93,-99.99,,,0.00,Acu-Link.com,2013-10-07 10:35:00,
2013-10-07 06:50:00,48.2,47.1,29.80,West,270,3.2,-999.0,96,-99.99,,,0.00,Acu-Link.com,2013-10-07 10:50:00,
2013-10-07 07:05:00,48.6,47.5,29.80,SW,225,5.3,-999.0,96,-99.99,,,0.00,Acu-Link.com,2013-10-07 11:05:00,
2013-10-07 07:20:00,48.6,47.2,29.81,West,270,2.2,-999.0,95,-99.99,,,0.00,Acu-Link.com,2013-10-07 11:20:00,
2013-10-07 07:35:00,48.2,46.6,29.81,East,90,1.7,-999.0,94,-99.99,,,0.00,Acu-Link.com,2013-10-07 11:35:00,
2013-10-07 07:50:00,47.5,46.1,29.82,WSW,247,2.7,-999.0,95,-99.99,,,0.00,Acu-Link.com,2013-10-07 11:50:00,
2013-10-07 08:06:00,47.1,46.0,29.83,West,270,2.7,-999.0,96,-99.99,,,0.00,Acu-Link.com,2013-10-07 12:06:00,
2013-10-07 08:21:00,46.9,45.3,29.84,West,270,3.2,-999.0,94,-99.99,,,0.00,Acu-Link.com,2013-10-07 12:21:00,
2013-10-07 08:36:00,46.9,45.5,29.86,NNE,22,2.7,-999.0,95,-99.99,,,0.00,Acu-Link.com,2013-10-07 12:36:00,
2013-10-07 08:51:00,47.1,45.2,29.87,West,270,2.2,-999.0,93,-99.99,,,0.00,Acu-Link.com,2013-10-07 12:51:00,
2013-10-07 09:06:00,47.1,44.6,29.88,West,270,2.7,-999.0,91,-99.99,,,0.00,Acu-Link.com,2013-10-07 13:06:00,
2013-10-07 09:21:00,47.1,44.6,29.88,NNW,337,2.7,-999.0,91,-99.99,,,0.00,Acu-Link.com,2013-10-07 13:21:00,
2013-10-07 09:37:00,48.0,45.2,29.89,West,270,3.7,-999.0,90,-99.99,,,0.00,Acu-Link.com,2013-10-07 13:37:00,
2013-10-07 09:52:00,48.2,45.1,29.90,WSW,247,3.2,-999.0,89,-99.99,,,0.00,Acu-Link.com,2013-10-07 13:52:00,
2013-10-07 10:07:00,48.4,45.3,29.89,WSW,247,2.7,-999.0,89,-99.99,,,0.00,Acu-Link.com,2013-10-07 14:07:00,
2013-10-07 10:22:00,48.6,44.6,29.90,WNW,292,3.2,-999.0,86,-99.99,,,0.00,Acu-Link.com,2013-10-07 14:22:00,
2013-10-07 10:37:00,49.8,45.8,29.91,WNW,292,2.7,-999.0,86,-99.99,,,0.00,Acu-Link.com,2013-10-07 14:37:00,
2013-10-07 10:53:00,49.8,45.5,29.92,WSW,247,2.2,-999.0,85,-99.99,,,0.00,Acu-Link.com,2013-10-07 14:53:00,
2013-10-07 11:08:00,51.3,46.9,29.92,NNW,337,4.2,-999.0,85,-99.99,,,0.00,Acu-Link.com,2013-10-07 15:08:00,
2013-10-07 11:24:00,52.0,47.0,29.92,WSW,247,2.7,-999.0,83,-99.99,,,0.00,Acu-Link.com,2013-10-07 15:24:00,
2013-10-07 11:41:00,55.0,48.3,29.93,WSW,247,1.1,-999.0,78,-99.99,,,0.00,Acu-Link.com,2013-10-07 15:41:00,
2013-10-07 11:56:00,53.8,47.1,29.93,West,270,3.7,-999.0,78,-99.99,,,0.00,Acu-Link.com,2013-10-07 15:56:00,
2013-10-07 12:12:00,54.7,46.6,29.93,West,270,3.7,-999.0,74,-99.99,,,0.00,Acu-Link.com,2013-10-07 16:12:00,
2013-10-07 12:27:00,56.3,47.8,29.93,West,270,4.2,-999.0,73,-99.99,,,0.00,Acu-Link.com,2013-10-07 16:27:00,
2013-10-07 12:42:00,56.1,46.5,29.94,West,270,2.7,-999.0,70,-99.99,,,0.00,Acu-Link.com,2013-10-07 16:42:00,
2013-10-07 12:58:00,57.7,46.8,29.94,West,270,3.7,-999.0,67,-99.99,,,0.00,Acu-Link.com,2013-10-07 16:58:00,
2013-10-07 13:13:00,59.4,48.8,29.94,West,270,3.2,-999.0,68,-99.99,,,0.00,Acu-Link.com,2013-10-07 17:13:00,
2013-10-07 13:29:00,59.9,48.1,29.94,WSW,247,2.7,-999.0,65,-99.99,,,0.00,Acu-Link.com,2013-10-07 17:29:00,
2013-10-07 13:44:00,59.0,46.8,29.94,NW,315,4.7,-999.0,64,-99.99,,,0.00,Acu-Link.com,2013-10-07 17:44:00,
2013-10-07 14:00:00,59.7,47.9,29.94,WSW,247,3.7,-999.0,65,-99.99,,,0.00,Acu-Link.com,2013-10-07 18:00:00,
2013-10-07 14:15:00,57.9,47.0,29.94,West,270,4.2,-999.0,67,-99.99,,,0.00,Acu-Link.com,2013-10-07 18:15:00,
2013-10-07 14:31:00,61.2,49.3,29.94,WSW,247,3.7,-999.0,65,-99.99,,,0.00,Acu-Link.com,2013-10-07 18:31:00,
2013-10-07 14:46:00,61.3,49.4,29.94,East,90,3.2,-999.0,65,-99.99,,,0.00,Acu-Link.com,2013-10-07 18:46:00,
2013-10-07 15:01:00,61.7,49.8,29.94,WSW,247,3.7,-999.0,65,-99.99,,,0.00,Acu-Link.com,2013-10-07 19:01:00,
2013-10-07 15:18:00,59.7,48.7,29.95,WNW,292,1.7,-999.0,67,-99.99,,,0.00,Acu-Link.com,2013-10-07 19:18:00,
2013-10-07 15:36:00,58.8,48.7,29.94,WNW,292,2.7,-999.0,69,-99.99,,,0.00,Acu-Link.com,2013-10-07 19:36:00,
2013-10-07 15:51:00,62.2,49.9,29.95,West,270,4.7,-999.0,64,-99.99,,,0.00,Acu-Link.com,2013-10-07 19:51:00,
2013-10-07 16:06:00,61.2,49.7,29.95,West,270,3.2,-999.0,66,-99.99,,,0.00,Acu-Link.com,2013-10-07 20:06:00,
2013-10-07 16:21:00,60.8,49.8,29.96,SW,225,2.2,-999.0,67,-99.99,,,0.00,Acu-Link.com,2013-10-07 20:21:00,
2013-10-07 16:36:00,61.5,50.0,29.96,WSW,247,2.7,-999.0,66,-99.99,,,0.00,Acu-Link.com,2013-10-07 20:36:00,
2013-10-07 17:13:00,63.5,50.2,29.96,ENE,67,1.7,-999.0,62,-99.99,,,0.00,Acu-Link.com,2013-10-07 21:13:00,
2013-10-07 17:29:00,61.5,49.6,29.96,West,270,1.1,-999.0,65,-99.99,,,0.00,Acu-Link.com,2013-10-07 21:29:00,
2013-10-07 17:44:00,61.3,49.0,29.96,West,270,0.0,-999.0,64,-99.99,,,0.00,Acu-Link.com,2013-10-07 21:44:00,
2013-10-07 17:59:00,61.7,49.8,29.97,West,270,1.7,-999.0,65,-99.99,,,0.00,Acu-Link.com,2013-10-07 21:59:00,
2013-10-07 18:15:00,61.0,49.6,29.97,West,270,1.7,-999.0,66,-99.99,,,0.00,Acu-Link.com,2013-10-07 22:15:00,
2013-10-07 18:30:00,60.4,50.6,29.97,SSE,157,0.0,-999.0,70,-99.99,,,0.00,Acu-Link.com,2013-10-07 22:30:00,
2013-10-07 18:45:00,59.7,49.1,29.98,SSW,202,1.1,-999.0,68,-99.99,,,0.00,Acu-Link.com,2013-10-07 22:45:00,
2013-10-07 19:00:00,58.6,48.8,29.98,West,270,0.0,-999.0,70,-99.99,,,0.00,Acu-Link.com,2013-10-07 23:00:00,
2013-10-07 19:16:00,57.6,49.4,29.98,West,270,0.0,-999.0,74,-99.99,,,0.00,Acu-Link.com,2013-10-07 23:16:00,
2013-10-07 19:31:00,56.1,48.6,29.99,SSW,202,0.0,-999.0,76,-99.99,,,0.00,Acu-Link.com,2013-10-07 23:31:00,
2013-10-07 19:46:00,55.0,48.9,30.00,SSW,202,0.0,-999.0,80,-99.99,,,0.00,Acu-Link.com,2013-10-07 23:46:00,
2013-10-07 20:02:00,54.1,48.7,30.01,SW,225,0.0,-999.0,82,-99.99,,,0.00,Acu-Link.com,2013-10-08 00:02:00,
2013-10-07 20:17:00,53.2,48.2,30.01,SW,225,0.0,-999.0,83,-99.99,,,0.00,Acu-Link.com,2013-10-08 00:17:00,
2013-10-07 20:32:00,52.7,48.3,30.02,SW,225,0.0,-999.0,85,-99.99,,,0.00,Acu-Link.com,2013-10-08 00:32:00,
2013-10-07 20:47:00,52.0,48.3,30.01,SW,225,0.0,-999.0,87,-99.99,,,0.00,Acu-Link.com,2013-10-08 00:47:00,
2013-10-07 21:03:00,51.6,48.2,30.02,SW,225,0.0,-999.0,88,-99.99,,,0.00,Acu-Link.com,2013-10-08 01:03:00,
2013-10-07 21:29:00,51.1,48.3,30.03,SSW,202,0.0,-999.0,90,-99.99,,,0.00,Acu-Link.com,2013-10-08 01:29:00,
2013-10-07 21:47:00,50.2,47.4,30.05,South,180,0.0,-999.0,90,-99.99,,,0.00,Acu-Link.com,2013-10-08 01:47:00,
2013-10-07 22:02:00,49.8,47.6,30.05,SSE,157,0.0,-999.0,92,-99.99,,,0.00,Acu-Link.com,2013-10-08 02:02:00,
2013-10-07 22:18:00,48.7,46.5,30.06,NNE,22,0.0,-999.0,92,-99.99,,,0.00,Acu-Link.com,2013-10-08 02:18:00,
2013-10-07 22:33:00,48.6,47.0,30.07,NW,315,0.0,-999.0,94,-99.99,,,0.00,Acu-Link.com,2013-10-08 02:33:00,
2013-10-07 22:48:00,48.2,46.8,30.06,East,90,0.0,-999.0,95,-99.99,,,0.00,Acu-Link.com,2013-10-08 02:48:00,
2013-10-07 23:03:00,48.2,47.1,30.08,SSW,202,0.0,-999.0,96,-99.99,,,0.00,Acu-Link.com,2013-10-08 03:03:00,
2013-10-07 23:19:00,48.4,47.3,30.08,West,270,0.0,-999.0,96,-99.99,,,0.00,Acu-Link.com,2013-10-08 03:19:00,
2013-10-07 23:34:00,48.0,46.6,30.09,NNW,337,0.0,-999.0,95,-99.99,,,0.00,Acu-Link.com,2013-10-08 03:34:00,
2013-10-07 23:49:00,47.5,46.4,30.09,NNE,22,0.0,-999.0,96,-99.99,,,0.00,Acu-Link.com,2013-10-08 03:49:00,